createdAt,value
2022-09-17T00:02:16.954Z,8.31
2022-09-17T00:09:08.834Z,8.25
2022-09-17T00:15:59.757Z,8.19
2022-09-17T00:22:58.899Z,8.18
2022-09-17T00:29:07.027Z,8.15
2022-09-17T00:35:42.063Z,8.11
2022-09-17T00:42:10.658Z,8.04
2022-09-17T00:48:31.535Z,7.98
2022-09-17T00:54:18.403Z,7.93
2022-09-17T01:00:11.783Z,7.91
2022-09-17T01:06:39.648Z,7.90
2022-09-17T01:13:09.263Z,7.85
2022-09-17T01:19:03.803Z,7.79
2022-09-17T01:25:22.497Z,7.69
2022-09-17T01:31:49.605Z,7.58
2022-09-17T01:38:18.881Z,7.53
2022-09-17T01:45:03.842Z,7.50
2022-09-17T01:51:26.459Z,7.42
2022-09-17T01:58:01.000Z,7.32
2022-09-17T02:04:42.556Z,7.24
2022-09-17T02:11:20.870Z,7.19
2022-09-17T02:17:27.490Z,7.15
2022-09-17T02:23:19.404Z,7.15
2022-09-17T02:30:15.192Z,7.23
2022-09-17T02:36:17.531Z,7.27
2022-09-17T02:42:38.892Z,7.27
2022-09-17T02:49:18.519Z,7.31
2022-09-17T02:56:03.832Z,7.32
2022-09-17T03:02:59.446Z,7.28
2022-09-17T03:09:18.622Z,7.20
2022-09-17T03:15:51.846Z,7.12
2022-09-17T03:22:36.561Z,7.16
2022-09-17T03:29:21.050Z,7.17
2022-09-17T03:35:46.420Z,7.13
2022-09-17T03:42:32.400Z,7.03
2022-09-17T03:49:25.764Z,6.93
2022-09-17T03:55:24.791Z,6.86
2022-09-17T04:02:26.851Z,6.82
2022-09-17T04:09:18.887Z,6.82
2022-09-17T04:16:07.411Z,6.76
2022-09-17T04:23:10.731Z,6.66
2022-09-17T04:29:03.802Z,6.60
2022-09-17T04:35:46.175Z,6.62
2022-09-17T04:42:10.804Z,6.73
2022-09-17T04:47:52.080Z,6.79
2022-09-17T04:53:50.809Z,6.81
2022-09-17T04:59:43.389Z,6.86
2022-09-17T05:05:52.947Z,6.93
2022-09-17T05:12:06.809Z,7.06
2022-09-17T05:18:06.123Z,7.22
2022-09-17T05:24:37.797Z,7.43
2022-09-17T05:30:24.621Z,7.64
2022-09-17T05:36:44.544Z,7.77
2022-09-17T05:42:33.071Z,7.93
2022-09-17T05:48:18.278Z,8.09
2022-09-17T05:54:00.136Z,8.31
2022-09-17T06:00:08.475Z,8.59
2022-09-17T06:06:42.266Z,8.83
2022-09-17T06:12:17.499Z,9.04
2022-09-17T06:17:54.143Z,9.24
2022-09-17T06:23:38.027Z,9.41
2022-09-17T06:29:11.118Z,9.62
2022-09-17T06:35:05.822Z,9.81
2022-09-17T06:40:54.368Z,10.06
2022-09-17T06:47:09.457Z,10.30
2022-09-17T06:52:51.000Z,10.58
2022-09-17T06:58:46.170Z,10.79
2022-09-17T07:04:36.023Z,10.99
2022-09-17T07:09:43.992Z,11.28
2022-09-17T07:15:39.092Z,11.52
2022-09-17T07:21:10.175Z,11.80
2022-09-17T07:27:13.495Z,12.13
2022-09-17T07:33:09.954Z,12.56
2022-09-17T07:39:16.323Z,12.77
2022-09-17T07:44:55.731Z,13.03
2022-09-17T07:50:51.329Z,13.13
2022-09-17T07:57:24.478Z,13.12
2022-09-17T08:03:03.649Z,13.38
2022-09-17T08:09:02.987Z,13.82
2022-09-17T08:14:44.205Z,14.03
2022-09-17T08:20:54.831Z,14.32
2022-09-17T08:27:12.827Z,14.37
2022-09-17T08:32:47.030Z,14.49
2022-09-17T08:37:57.665Z,14.61
2022-09-17T08:43:06.057Z,14.67
2022-09-17T08:48:13.313Z,14.82
2022-09-17T08:53:23.450Z,14.90
2022-09-17T08:58:59.938Z,14.90
2022-09-17T09:04:47.479Z,15.05
2022-09-17T09:10:39.887Z,15.25
2022-09-17T09:16:07.238Z,15.46
2022-09-17T09:22:04.436Z,15.59
2022-09-17T09:27:26.515Z,15.43
2022-09-17T09:32:50.089Z,15.30
2022-09-17T09:39:27.241Z,15.26
2022-09-17T09:44:49.646Z,15.18
2022-09-17T09:50:13.331Z,15.23
2022-09-17T09:56:03.523Z,15.22
2022-09-17T10:01:30.321Z,15.11
2022-09-17T10:06:43.727Z,15.08
2022-09-17T10:12:21.956Z,15.21
2022-09-17T10:17:35.359Z,15.29
2022-09-17T10:22:48.302Z,15.17
2022-09-17T10:28:02.440Z,15.09
2022-09-17T10:33:46.880Z,14.93
2022-09-17T10:39:58.260Z,14.60
2022-09-17T10:46:57.355Z,14.33
2022-09-17T10:53:25.752Z,14.29
2022-09-17T10:58:53.911Z,14.35
2022-09-17T11:04:22.392Z,14.51
2022-09-17T11:10:12.857Z,14.57
2022-09-17T11:15:55.667Z,14.50
2022-09-17T11:22:01.652Z,14.36
2022-09-17T11:28:25.904Z,14.41
2022-09-17T11:35:05.713Z,14.68
2022-09-17T11:41:00.408Z,14.79
2022-09-17T11:47:12.257Z,14.67
2022-09-17T11:53:23.175Z,14.69
2022-09-17T11:59:21.371Z,14.78
2022-09-17T12:05:04.960Z,15.02
2022-09-17T12:10:49.925Z,15.14
2022-09-17T12:16:53.606Z,15.25
2022-09-17T12:22:40.737Z,15.42
2022-09-17T12:28:20.663Z,15.60
2022-09-17T12:33:46.589Z,15.83
2022-09-17T12:39:33.508Z,15.93
2022-09-17T12:45:17.953Z,15.95
2022-09-17T12:50:54.563Z,15.94
2022-09-17T12:56:25.254Z,15.99
2022-09-17T13:01:45.354Z,16.00
2022-09-17T13:07:34.853Z,15.91
2022-09-17T13:12:56.355Z,15.86
2022-09-17T13:18:29.712Z,15.84
2022-09-17T13:23:53.784Z,15.74
2022-09-17T13:28:56.546Z,15.84
2022-09-17T13:34:11.522Z,16.10
2022-09-17T13:39:56.505Z,16.13
2022-09-17T13:45:45.112Z,16.02
2022-09-17T13:51:42.216Z,16.03
2022-09-17T13:57:07.235Z,15.96
2022-09-17T14:02:17.934Z,15.87
2022-09-17T14:08:08.924Z,15.82
2022-09-17T14:13:59.732Z,15.66
2022-09-17T14:20:03.049Z,15.54
2022-09-17T14:25:44.391Z,15.31
2022-09-17T14:31:11.433Z,15.00
2022-09-17T14:36:19.751Z,14.77
2022-09-17T14:41:39.856Z,14.61
2022-09-17T14:47:27.304Z,14.50
2022-09-17T14:52:32.039Z,14.44
2022-09-17T14:58:35.067Z,14.41
2022-09-17T15:03:45.284Z,14.34
2022-09-17T15:08:57.557Z,14.41
2022-09-17T15:14:14.154Z,14.50
2022-09-17T15:19:44.312Z,14.61
2022-09-17T15:25:48.023Z,14.67
2022-09-17T15:31:27.838Z,14.60
2022-09-17T15:37:41.392Z,14.54
2022-09-17T15:43:49.385Z,14.49
2022-09-17T15:50:28.943Z,14.33
2022-09-17T15:56:34.136Z,14.19
2022-09-17T16:03:06.123Z,13.99
2022-09-17T16:09:08.946Z,13.83
2022-09-17T16:14:45.616Z,13.66
2022-09-17T16:20:44.815Z,13.51
2022-09-17T16:26:24.349Z,13.37
2022-09-17T16:31:57.103Z,13.26
2022-09-17T16:36:59.031Z,13.17
2022-09-17T16:42:12.952Z,13.06
2022-09-17T16:47:38.027Z,12.98
2022-09-17T16:52:52.425Z,12.91
2022-09-17T16:58:15.516Z,12.89
2022-09-17T17:03:49.160Z,12.85
2022-09-17T17:09:23.522Z,12.75
2022-09-17T17:14:25.885Z,12.66
2022-09-17T17:20:03.564Z,12.59
2022-09-17T17:26:26.040Z,12.51
2022-09-17T17:32:10.300Z,12.45
2022-09-17T17:37:28.618Z,12.37
2022-09-17T17:43:11.213Z,12.31
2022-09-17T17:48:58.225Z,12.14
2022-09-17T17:54:26.700Z,11.86
2022-09-17T18:00:20.000Z,11.60
2022-09-17T18:07:19.935Z,11.37
2022-09-17T18:13:32.002Z,11.25
2022-09-17T18:19:57.792Z,11.16
2022-09-17T18:25:23.368Z,11.10
2022-09-17T18:31:18.290Z,11.07
2022-09-17T18:37:55.644Z,11.03
2022-09-17T18:43:32.527Z,10.97
2022-09-17T18:48:54.590Z,10.90
2022-09-17T18:54:16.326Z,10.89
2022-09-17T19:00:04.755Z,10.86
2022-09-17T19:06:06.973Z,10.74
2022-09-17T19:11:49.520Z,10.63
2022-09-17T19:17:47.925Z,10.57
2022-09-17T19:23:38.026Z,10.51
2022-09-17T19:28:53.247Z,10.43
2022-09-17T19:33:58.454Z,10.36
2022-09-17T19:39:12.391Z,10.29
2022-09-17T19:44:29.648Z,10.22
2022-09-17T19:49:54.986Z,10.15
2022-09-17T19:55:00.220Z,10.08
2022-09-17T20:00:02.245Z,10.03
2022-09-17T20:05:33.963Z,9.98
2022-09-17T20:10:38.010Z,9.93
2022-09-17T20:15:39.780Z,9.88
2022-09-17T20:20:54.158Z,9.85
2022-09-17T20:26:09.518Z,9.80
2022-09-17T20:31:58.341Z,9.73
2022-09-17T20:37:13.009Z,9.65
2022-09-17T20:43:14.546Z,9.58
2022-09-17T20:50:00.539Z,9.49
2022-09-17T20:56:25.041Z,9.44
2022-09-17T21:02:26.809Z,9.39
2022-09-17T21:08:49.763Z,9.36
2022-09-17T21:15:02.039Z,9.33
2022-09-17T21:21:50.218Z,9.33
2022-09-17T21:27:44.292Z,9.33
2022-09-17T21:33:33.249Z,9.33
2022-09-17T21:40:27.985Z,9.32
2022-09-17T21:47:10.351Z,9.29
2022-09-17T21:54:06.663Z,9.28
2022-09-17T22:00:12.743Z,9.28
2022-09-17T22:06:09.115Z,9.31
2022-09-17T22:12:12.259Z,9.32
2022-09-17T22:17:34.624Z,9.32
2022-09-17T22:24:06.949Z,9.32
2022-09-17T22:30:10.513Z,9.32
2022-09-17T22:36:45.245Z,9.33
2022-09-17T22:43:17.489Z,9.33
2022-09-17T22:49:53.483Z,9.33
2022-09-17T22:56:19.918Z,9.33
2022-09-17T23:02:58.325Z,9.33
2022-09-17T23:09:33.423Z,9.33
2022-09-17T23:16:11.093Z,9.33
2022-09-17T23:23:24.697Z,9.31
2022-09-17T23:29:54.786Z,9.28
2022-09-17T23:35:39.662Z,9.24
2022-09-17T23:42:00.553Z,9.20
2022-09-17T23:48:21.035Z,9.18
2022-09-17T23:54:31.370Z,9.17
